Time;durP1;ratioP1;P1;durP2;ratioP2;P2;SDS_P1;SDS_P2;PMS_P1;PMS_P2;Temp;Humidity;BMP_temperature;BMP_pressure;BME280_temperature;BME280_humidity;BME280_pressure;Samples;Min_cycle;Max_cycle;Signal;HPM_P1;HPM_P2
2022/02/17 00:02:13;;;;;;;3.80;2.03;;;12.00;99.90;;;;;;5084450;28;20519;-65
2022/02/17 00:04:45;;;;;;;4.63;2.90;;;12.10;99.90;;;;;;5097292;28;20478;-62
2022/02/17 00:07:16;;;;;;;2.90;2.33;;;12.20;99.90;;;;;;5086420;28;20478;-63
2022/02/17 00:09:47;;;;;;;4.37;2.50;;;12.20;99.90;;;;;;5090664;28;20458;-62
2022/02/17 00:12:18;;;;;;;2.70;2.20;;;12.20;99.90;;;;;;5083423;28;20534;-62
2022/02/17 00:14:48;;;;;;;3.13;2.07;;;12.20;99.90;;;;;;5082904;28;20455;-62
2022/02/17 00:17:21;;;;;;;4.70;2.20;;;12.20;99.90;;;;;;5083604;28;20511;-62
2022/02/17 00:19:52;;;;;;;4.53;2.13;;;12.20;99.90;;;;;;5081634;28;20460;-62
2022/02/17 00:22:23;;;;;;;3.60;2.03;;;12.20;99.90;;;;;;5082026;28;20447;-62
2022/02/17 00:24:54;;;;;;;2.80;1.80;;;12.20;99.90;;;;;;5081866;28;20480;-62
2022/02/17 00:27:24;;;;;;;2.03;1.40;;;12.10;99.90;;;;;;5087868;28;20451;-62
2022/02/17 00:29:55;;;;;;;2.80;2.20;;;11.90;99.90;;;;;;5081334;28;20443;-62
2022/02/17 00:32:28;;;;;;;2.50;1.97;;;11.80;99.90;;;;;;5083066;28;20514;-62
2022/02/17 00:34:59;;;;;;;2.60;2.13;;;11.80;99.90;;;;;;5082069;28;20463;-62
2022/02/17 00:37:29;;;;;;;2.93;1.90;;;11.90;99.90;;;;;;5082057;28;20497;-62
2022/02/17 00:40:00;;;;;;;1.77;1.57;;;11.80;99.90;;;;;;5081628;28;20442;-65
2022/02/17 00:42:31;;;;;;;1.97;1.83;;;11.90;99.90;;;;;;5082375;28;20503;-62
2022/02/17 00:45:02;;;;;;;5.00;2.00;;;11.90;99.90;;;;;;5093078;28;20436;-62
2022/02/17 00:47:34;;;;;;;4.40;3.03;;;11.80;99.90;;;;;;5087134;28;20445;-62
2022/02/17 00:50:06;;;;;;;2.90;2.07;;;11.80;99.90;;;;;;5084573;28;20459;-61
2022/02/17 00:52:37;;;;;;;3.70;2.83;;;11.70;99.90;;;;;;5087400;28;20448;-62
2022/02/17 00:55:08;;;;;;;2.97;2.23;;;11.60;99.90;;;;;;5078143;28;20494;-63
2022/02/17 00:57:39;;;;;;;6.10;3.10;;;11.60;99.90;;;;;;5081560;28;21056;-62
2022/02/17 01:00:11;;;;;;;2.30;2.10;;;11.60;99.90;;;;;;5080818;28;20469;-63
2022/02/17 01:02:43;;;;;;;3.43;2.43;;;11.60;99.90;;;;;;5082240;28;20970;-63
2022/02/17 01:05:14;;;;;;;4.20;2.83;;;11.50;99.90;;;;;;5080681;28;20451;-63
2022/02/17 01:07:45;;;;;;;2.77;2.27;;;11.30;99.90;;;;;;5080984;28;20459;-62
2022/02/17 01:10:16;;;;;;;2.30;2.03;;;11.30;99.90;;;;;;5081133;28;20447;-63
2022/02/17 01:12:46;;;;;;;2.97;2.60;;;11.30;99.90;;;;;;5079174;28;20456;-62
2022/02/17 01:15:17;;;;;;;3.00;2.80;;;11.40;99.90;;;;;;5090807;28;20440;-73
2022/02/17 01:17:53;;;;;;;3.13;2.23;;;11.40;99.90;;;;;;5082335;28;20493;-63
2022/02/17 01:20:23;;;;;;;3.33;3.03;;;11.40;99.90;;;;;;5082858;28;20450;-63
2022/02/17 01:22:54;;;;;;;3.40;2.97;;;11.30;99.90;;;;;;5085089;28;20453;-64
2022/02/17 01:25:26;;;;;;;5.33;3.20;;;11.30;99.90;;;;;;5074946;28;20571;-63
2022/02/17 01:27:57;;;;;;;3.93;2.90;;;11.30;99.90;;;;;;5081001;28;20951;-62
2022/02/17 01:30:28;;;;;;;2.60;2.33;;;11.30;99.90;;;;;;5081104;28;20462;-62
2022/02/17 01:33:00;;;;;;;4.70;2.93;;;11.20;99.90;;;;;;5084870;28;20450;-62
2022/02/17 01:35:31;;;;;;;4.03;2.97;;;11.20;99.90;;;;;;5085802;28;20455;-62
2022/02/17 01:38:02;;;;;;;4.60;2.80;;;11.10;99.90;;;;;;5095574;28;20488;-61
2022/02/17 01:40:35;;;;;;;3.70;2.47;;;11.00;99.90;;;;;;5078477;28;20475;-63
2022/02/17 01:43:06;;;;;;;4.80;2.70;;;11.10;99.90;;;;;;5083705;28;20444;-62
2022/02/17 01:45:39;;;;;;;4.00;2.67;;;11.10;99.90;;;;;;5084118;28;20518;-68
2022/02/17 01:48:12;;;;;;;3.43;2.80;;;11.10;99.90;;;;;;5085209;28;20514;-64
2022/02/17 01:50:43;;;;;;;11.03;3.60;;;11.10;99.90;;;;;;5083465;28;20443;-65
2022/02/17 01:53:16;;;;;;;2.50;2.30;;;11.10;99.90;;;;;;5086956;28;20485;-72
2022/02/17 01:55:49;;;;;;;4.17;3.70;;;11.00;99.90;;;;;;5080856;28;20459;-70
2022/02/17 01:58:21;;;;;;;3.90;2.87;;;11.00;99.90;;;;;;5091845;28;20558;-73
2022/02/17 02:00:52;;;;;;;10.23;4.00;;;11.00;99.90;;;;;;5089640;28;20447;-66
2022/02/17 02:03:25;;;;;;;4.10;3.70;;;11.20;99.90;;;;;;5085919;28;20506;-68
2022/02/17 02:05:56;;;;;;;5.47;4.17;;;11.20;99.90;;;;;;5095329;28;20515;-68
2022/02/17 02:08:27;;;;;;;4.20;3.80;;;11.10;99.90;;;;;;5100593;28;20439;-69
2022/02/17 02:10:58;;;;;;;6.13;3.77;;;11.10;99.90;;;;;;5083072;28;20565;-69
2022/02/17 02:13:29;;;;;;;4.80;3.90;;;11.00;99.90;;;;;;5084145;28;20456;-64
2022/02/17 02:16:00;;;;;;;4.80;3.40;;;10.90;99.90;;;;;;5085012;28;20507;-71
2022/02/17 02:18:33;;;;;;;5.10;4.00;;;10.90;99.90;;;;;;5087584;28;20498;-69
2022/02/17 02:21:06;;;;;;;5.00;4.10;;;11.00;99.90;;;;;;5083397;28;20519;-67
2022/02/17 02:23:38;;;;;;;7.80;3.70;;;11.10;99.90;;;;;;5088035;28;20448;-71
2022/02/17 02:26:09;;;;;;;6.63;4.80;;;11.10;99.90;;;;;;5085109;28;20446;-69
2022/02/17 02:28:42;;;;;;;4.90;3.60;;;11.10;99.90;;;;;;5089674;28;20451;-64
2022/02/17 02:31:14;;;;;;;7.50;3.60;;;11.00;99.90;;;;;;5095056;28;20439;-63
2022/02/17 02:33:45;;;;;;;4.37;3.97;;;11.00;99.90;;;;;;5084631;28;20444;-62
2022/02/17 02:36:18;;;;;;;4.90;3.73;;;11.00;99.90;;;;;;5084384;28;20451;-62
2022/02/17 02:38:59;;;;;;;6.57;3.80;;;11.00;99.90;;;;;;5085224;28;20498;-63
2022/02/17 02:41:30;;;;;;;5.10;4.30;;;10.90;99.90;;;;;;5084830;28;20922;-62
2022/02/17 02:44:01;;;;;;;5.70;4.77;;;10.90;99.90;;;;;;5080023;28;20515;-61
2022/02/17 02:46:32;;;;;;;5.47;4.70;;;10.90;99.90;;;;;;5085368;28;20465;-62
2022/02/17 02:49:03;;;;;;;6.87;3.70;;;10.90;99.90;;;;;;5085662;28;20900;-68
2022/02/17 02:51:35;;;;;;;6.70;4.20;;;10.90;99.90;;;;;;5092999;28;20459;-63
2022/02/17 02:54:07;;;;;;;4.80;4.40;;;10.90;99.90;;;;;;5085089;28;20451;-67
2022/02/17 02:56:38;;;;;;;6.50;3.80;;;10.80;99.90;;;;;;5080114;28;20775;-65
2022/02/17 02:59:09;;;;;;;4.80;4.30;;;10.80;99.90;;;;;;5094815;28;20580;-64
2022/02/17 03:01:40;;;;;;;5.00;4.20;;;10.80;99.90;;;;;;5084015;28;20448;-65
2022/02/17 03:04:12;;;;;;;4.83;4.20;;;10.80;99.90;;;;;;5084916;28;20444;-65
2022/02/17 03:06:45;;;;;;;4.70;4.00;;;10.80;99.90;;;;;;5084245;28;20451;-66
2022/02/17 03:09:16;;;;;;;5.80;3.73;;;10.80;99.90;;;;;;5081226;28;20542;-66
2022/02/17 03:11:47;;;;;;;6.93;4.17;;;10.70;99.90;;;;;;5081626;28;20508;-65
2022/02/17 03:14:18;;;;;;;5.73;4.70;;;10.70;99.90;;;;;;5082635;28;20790;-65
2022/02/17 03:16:49;;;;;;;7.17;4.53;;;10.70;99.90;;;;;;5083356;28;20444;-66
2022/02/17 03:19:20;;;;;;;4.70;4.30;;;10.80;99.90;;;;;;5074733;28;21037;-66
2022/02/17 03:21:56;;;;;;;6.20;3.73;;;10.80;99.90;;;;;;5082332;28;20452;-66
2022/02/17 03:24:27;;;;;;;8.73;5.17;;;10.70;99.90;;;;;;5083613;28;21074;-66
2022/02/17 03:26:58;;;;;;;6.30;4.70;;;10.80;99.90;;;;;;5085022;28;20515;-68
2022/02/17 03:29:30;;;;;;;8.20;4.50;;;10.70;99.90;;;;;;5088863;28;20542;-67
2022/02/17 03:32:02;;;;;;;7.07;5.30;;;10.70;99.90;;;;;;5098795;28;20434;-67
2022/02/17 03:34:36;;;;;;;6.07;4.60;;;10.70;99.90;;;;;;5090408;28;20456;-66
2022/02/17 03:37:09;;;;;;;6.00;4.80;;;10.60;99.90;;;;;;5082493;28;20508;-67
2022/02/17 03:39:40;;;;;;;6.23;4.53;;;10.60;99.90;;;;;;5082999;28;20498;-65
2022/02/17 03:42:11;;;;;;;9.50;5.23;;;10.60;99.90;;;;;;5082216;28;20489;-67
2022/02/17 03:44:42;;;;;;;9.00;4.57;;;10.60;99.90;;;;;;5083439;28;20451;-64
2022/02/17 03:47:13;;;;;;;7.70;5.50;;;10.60;99.90;;;;;;5081602;28;20444;-67
2022/02/17 03:49:44;;;;;;;8.33;5.90;;;10.60;99.90;;;;;;5083676;28;20470;-64
2022/02/17 03:52:17;;;;;;;6.20;5.07;;;10.60;99.90;;;;;;5082303;28;20475;-65
2022/02/17 03:55:08;;;;;;;8.73;6.47;;;10.60;99.90;;;;;;5081367;28;20474;-66
2022/02/17 03:57:48;;;;;;;7.20;6.50;;;10.60;99.90;;;;;;5083651;28;20479;-64
2022/02/17 04:00:20;;;;;;;7.13;5.90;;;10.60;99.90;;;;;;5083727;28;20559;-66
2022/02/17 04:02:52;;;;;;;7.23;6.30;;;10.60;99.90;;;;;;5081540;28;20451;-65
2022/02/17 04:05:23;;;;;;;7.57;6.70;;;10.60;99.90;;;;;;5082593;28;20507;-65
2022/02/17 04:07:55;;;;;;;10.70;6.67;;;10.60;99.90;;;;;;5081235;28;20456;-66
2022/02/17 04:10:26;;;;;;;8.03;6.80;;;10.50;99.90;;;;;;5081576;28;20451;-65
2022/02/17 04:12:57;;;;;;;7.83;6.93;;;10.50;99.90;;;;;;5075801;28;20458;-64
2022/02/17 04:15:31;;;;;;;8.27;7.43;;;10.50;99.90;;;;;;5081811;28;20462;-65
2022/02/17 04:18:04;;;;;;;8.23;7.40;;;10.50;99.90;;;;;;5082115;28;20455;-65
2022/02/17 04:20:37;;;;;;;8.17;7.30;;;10.40;99.90;;;;;;5083060;28;20489;-65
2022/02/17 04:23:10;;;;;;;9.23;7.93;;;10.40;99.90;;;;;;5082797;28;20455;-65
2022/02/17 04:25:41;;;;;;;10.00;9.10;;;10.50;99.90;;;;;;5079986;28;20530;-65
2022/02/17 04:28:12;;;;;;;9.30;7.60;;;10.50;99.90;;;;;;5081605;28;20629;-65
2022/02/17 04:30:43;;;;;;;9.90;8.90;;;10.50;99.90;;;;;;5082304;28;20535;-65
2022/02/17 04:33:14;;;;;;;11.50;8.97;;;10.50;99.90;;;;;;5082060;28;20470;-65
2022/02/17 04:35:45;;;;;;;12.70;8.90;;;10.50;99.90;;;;;;5083107;28;20553;-66
2022/02/17 04:38:18;;;;;;;10.70;8.23;;;10.50;99.90;;;;;;5082084;28;20543;-66
2022/02/17 04:43:36;;;;;;;9.07;8.10;;;10.50;99.90;;;;;;5077507;28;20481;-66
2022/02/17 04:46:07;;;;;;;10.47;8.33;;;10.50;99.90;;;;;;5081090;28;20960;-65
2022/02/17 04:48:39;;;;;;;9.37;8.30;;;10.50;99.90;;;;;;5080991;28;20751;-66
2022/02/17 04:51:09;;;;;;;9.40;8.43;;;10.40;99.90;;;;;;5081684;28;20473;-66
2022/02/17 04:53:42;;;;;;;11.77;8.93;;;10.40;99.90;;;;;;5080043;28;20470;-67
2022/02/17 04:56:15;;;;;;;10.93;8.20;;;10.30;99.90;;;;;;5081519;28;20518;-65
2022/02/17 04:58:46;;;;;;;11.47;10.33;;;10.30;99.90;;;;;;5077527;28;20483;-65
2022/02/17 05:01:17;;;;;;;10.40;7.30;;;10.30;99.90;;;;;;5081999;28;20974;-65
2022/02/17 05:03:48;;;;;;;7.70;6.97;;;10.30;99.90;;;;;;5080260;28;20817;-65
2022/02/17 05:06:19;;;;;;;8.33;7.53;;;10.30;99.90;;;;;;5081041;28;20466;-65
2022/02/17 05:08:51;;;;;;;10.07;6.70;;;10.20;99.90;;;;;;5082935;28;20466;-65
2022/02/17 05:11:23;;;;;;;8.07;6.50;;;10.20;99.90;;;;;;5084216;28;20447;-65
2022/02/17 05:13:54;;;;;;;9.10;6.93;;;10.20;99.90;;;;;;5084023;28;20455;-65
2022/02/17 05:16:25;;;;;;;6.50;5.90;;;10.20;99.90;;;;;;5082687;28;20459;-66
2022/02/17 05:18:56;;;;;;;8.00;6.33;;;10.10;99.90;;;;;;5083088;28;20528;-66
2022/02/17 05:21:27;;;;;;;6.23;5.53;;;10.20;99.90;;;;;;5084423;28;21010;-66
2022/02/17 05:24:05;;;;;;;6.30;5.70;;;10.20;99.90;;;;;;5084683;28;20783;-66
2022/02/17 05:26:38;;;;;;;6.63;5.93;;;10.10;99.90;;;;;;5081509;28;20443;-66
2022/02/17 05:29:09;;;;;;;8.77;5.60;;;10.10;99.90;;;;;;5081315;28;20518;-65
2022/02/17 05:31:43;;;;;;;7.13;6.37;;;10.10;99.90;;;;;;5080630;28;20474;-65
2022/02/17 05:34:14;;;;;;;10.17;5.97;;;10.10;99.90;;;;;;5080332;28;20534;-65
2022/02/17 05:36:54;;;;;;;7.93;6.73;;;10.10;99.90;;;;;;5081834;28;20528;-66
2022/02/17 05:39:27;;;;;;;6.67;5.97;;;10.10;99.90;;;;;;5081828;28;20494;-66
2022/02/17 05:41:58;;;;;;;6.30;5.70;;;10.10;99.90;;;;;;5080580;28;20562;-66
2022/02/17 05:44:30;;;;;;;6.73;6.10;;;10.20;99.90;;;;;;5080735;28;20582;-66
2022/02/17 05:47:02;;;;;;;9.63;6.60;;;10.30;99.90;;;;;;5080506;28;20447;-66
2022/02/17 05:49:34;;;;;;;7.80;6.93;;;10.30;99.90;;;;;;5079923;28;20551;-66
2022/02/17 05:52:05;;;;;;;11.10;6.80;;;10.30;99.90;;;;;;5081225;28;20518;-66
2022/02/17 05:54:38;;;;;;;6.80;6.10;;;10.30;99.90;;;;;;5080637;28;20455;-66
2022/02/17 05:57:10;;;;;;;6.80;6.00;;;10.30;99.90;;;;;;5082450;28;20978;-66
2022/02/17 05:59:43;;;;;;;7.70;5.77;;;10.20;99.90;;;;;;5086827;28;20482;-66
2022/02/17 06:02:16;;;;;;;11.50;7.10;;;10.10;99.90;;;;;;5085795;28;20452;-66
2022/02/17 06:04:47;;;;;;;7.00;6.33;;;10.10;99.90;;;;;;5084187;28;20943;-66
2022/02/17 06:07:25;;;;;;;10.23;6.33;;;10.00;99.90;;;;;;5082747;28;20977;-66
2022/02/17 06:09:58;;;;;;;6.60;5.77;;;10.00;99.90;;;;;;5082796;28;20459;-66
2022/02/17 06:12:29;;;;;;;7.33;6.60;;;10.00;99.90;;;;;;5088069;28;20450;-64
2022/02/17 06:15:00;;;;;;;7.03;6.33;;;10.00;99.90;;;;;;5085447;28;20630;-64
2022/02/17 06:17:34;;;;;;;7.70;7.00;;;10.00;99.90;;;;;;5083487;28;20846;-65
2022/02/17 06:20:08;;;;;;;8.90;6.23;;;10.00;99.90;;;;;;5069856;28;20479;-67
2022/02/17 06:22:46;;;;;;;7.40;5.73;;;10.00;99.90;;;;;;5084381;28;20546;-67
2022/02/17 06:25:20;;;;;;;9.20;7.13;;;10.00;99.90;;;;;;5084026;28;20914;-67
2022/02/17 06:27:51;;;;;;;11.10;7.70;;;10.00;99.90;;;;;;5088663;28;20455;-67
2022/02/17 06:30:23;;;;;;;9.47;8.33;;;10.00;99.90;;;;;;5083082;28;20586;-67
2022/02/17 06:32:57;;;;;;;10.30;7.57;;;9.90;99.90;;;;;;5084852;28;20858;-67
2022/02/17 06:35:32;;;;;;;8.50;7.60;;;9.90;99.90;;;;;;5084427;28;20452;-66
2022/02/17 06:38:04;;;;;;;8.33;7.53;;;9.90;99.90;;;;;;5087488;28;20453;-67
2022/02/17 06:40:36;;;;;;;7.83;6.67;;;9.90;99.90;;;;;;5087161;28;20487;-67
2022/02/17 06:43:09;;;;;;;8.97;8.07;;;9.90;99.90;;;;;;5088321;28;21023;-66
2022/02/17 06:45:42;;;;;;;9.33;8.07;;;9.90;99.90;;;;;;5072253;28;20493;-66
2022/02/17 06:48:19;;;;;;;10.87;8.53;;;9.80;99.90;;;;;;5084304;28;20505;-67
2022/02/17 06:50:50;;;;;;;8.83;7.60;;;9.80;99.90;;;;;;5083893;28;20451;-67
2022/02/17 06:53:22;;;;;;;9.07;8.03;;;9.80;99.90;;;;;;5084765;28;20860;-67
2022/02/17 06:55:57;;;;;;;12.87;8.20;;;9.80;99.90;;;;;;5085891;28;20542;-67
2022/02/17 06:58:28;;;;;;;9.40;8.03;;;9.80;99.90;;;;;;5080686;28;20458;-67
2022/02/17 07:00:59;;;;;;;10.43;7.80;;;9.80;99.90;;;;;;5084499;28;20548;-67
2022/02/17 07:03:31;;;;;;;9.93;8.23;;;9.80;99.90;;;;;;5080456;28;20555;-67
2022/02/17 07:06:03;;;;;;;9.67;8.70;;;9.80;99.90;;;;;;5090737;28;20448;-65
2022/02/17 07:08:34;;;;;;;11.73;8.83;;;9.80;99.90;;;;;;5087622;28;20480;-67
2022/02/17 07:11:06;;;;;;;12.40;9.10;;;9.70;99.90;;;;;;5086680;28;20441;-65
2022/02/17 07:13:37;;;;;;;10.80;8.57;;;9.80;99.90;;;;;;5084065;28;20458;-66
2022/02/17 07:16:11;;;;;;;8.83;7.90;;;9.80;99.90;;;;;;5093479;28;20479;-65
2022/02/17 07:18:46;;;;;;;10.73;8.37;;;9.70;99.90;;;;;;5084386;28;20455;-66
2022/02/17 07:21:17;;;;;;;12.07;7.90;;;9.80;99.90;;;;;;5090828;28;20481;-65
2022/02/17 07:23:48;;;;;;;11.50;9.23;;;9.90;99.90;;;;;;5088654;28;20981;-66
2022/02/17 07:26:20;;;;;;;10.40;7.73;;;9.90;99.90;;;;;;5083210;28;20927;-66
2022/02/17 07:28:51;;;;;;;9.73;7.77;;;9.80;99.90;;;;;;5084665;28;20462;-66
2022/02/17 07:31:22;;;;;;;9.10;8.20;;;9.70;99.90;;;;;;5083525;28;20456;-67
2022/02/17 07:33:53;;;;;;;8.87;7.97;;;9.60;99.90;;;;;;5090979;28;20471;-67
2022/02/17 07:36:24;;;;;;;10.03;9.03;;;9.70;99.90;;;;;;5082381;28;20494;-66
2022/02/17 07:39:01;;;;;;;14.10;9.90;;;9.70;99.90;;;;;;5078054;28;20478;-67
2022/02/17 07:41:36;;;;;;;10.03;8.37;;;9.70;99.90;;;;;;5079884;28;20505;-66
2022/02/17 07:44:10;;;;;;;11.87;8.70;;;9.70;99.90;;;;;;5081598;28;20482;-65
2022/02/17 07:46:41;;;;;;;9.23;8.30;;;9.60;99.90;;;;;;5083393;28;20451;-65
2022/02/17 07:49:13;;;;;;;9.43;7.90;;;9.60;99.90;;;;;;5083165;28;20542;-66
2022/02/17 07:51:44;;;;;;;11.53;8.17;;;9.60;99.90;;;;;;5083485;28;20456;-66
2022/02/17 07:54:17;;;;;;;8.60;7.80;;;9.60;99.90;;;;;;5085184;28;20489;-66
2022/02/17 07:56:50;;;;;;;12.50;8.63;;;9.60;99.90;;;;;;5086786;28;20452;-66
2022/02/17 07:59:21;;;;;;;8.80;7.93;;;9.60;99.90;;;;;;5082168;28;20515;-66
2022/02/17 08:01:51;;;;;;;12.17;8.70;;;9.60;99.90;;;;;;5083537;28;20862;-67
2022/02/17 08:04:23;;;;;;;12.40;9.10;;;9.60;99.90;;;;;;5083668;28;20451;-67
2022/02/17 08:06:53;;;;;;;13.20;10.00;;;9.60;99.90;;;;;;5081808;28;20467;-67
2022/02/17 08:09:25;;;;;;;10.10;9.10;;;9.70;99.90;;;;;;5088704;28;20938;-66
2022/02/17 08:11:58;;;;;;;10.63;9.50;;;9.70;99.90;;;;;;5083453;28;20543;-66
2022/02/17 08:14:29;;;;;;;11.23;9.67;;;9.60;99.90;;;;;;5081830;28;20530;-66
2022/02/17 08:16:59;;;;;;;12.40;9.17;;;9.60;99.90;;;;;;5086764;28;20443;-66
2022/02/17 08:19:33;;;;;;;9.53;8.53;;;9.60;99.90;;;;;;5086176;28;20451;-67
2022/02/17 08:22:04;;;;;;;10.00;8.40;;;9.60;99.90;;;;;;5081913;28;21376;-66
2022/02/17 08:24:35;;;;;;;9.10;8.10;;;9.50;99.90;;;;;;5080487;28;20922;-67
2022/02/17 08:27:08;;;;;;;11.63;9.10;;;9.50;99.90;;;;;;5086704;28;20468;-66
2022/02/17 08:29:39;;;;;;;9.80;8.90;;;9.50;99.90;;;;;;5081251;28;20451;-67
2022/02/17 08:32:10;;;;;;;9.10;8.03;;;9.40;99.90;;;;;;5082471;28;20484;-66
2022/02/17 08:34:43;;;;;;;12.40;8.03;;;9.30;99.90;;;;;;5082466;28;20448;-66
2022/02/17 08:37:15;;;;;;;9.90;7.93;;;9.30;99.90;;;;;;5081714;28;20447;-66
2022/02/17 08:39:45;;;;;;;9.80;8.80;;;9.30;99.90;;;;;;5087295;28;20468;-66
2022/02/17 08:42:18;;;;;;;15.20;9.47;;;9.20;99.90;;;;;;5079621;28;20498;-66
2022/02/17 08:44:49;;;;;;;9.67;8.63;;;9.20;99.90;;;;;;5086954;28;20483;-66
2022/02/17 08:47:21;;;;;;;10.00;7.80;;;9.10;99.90;;;;;;5082036;28;20519;-67
2022/02/17 08:49:52;;;;;;;11.03;9.10;;;9.10;99.90;;;;;;5085458;28;20451;-66
2022/02/17 08:52:23;;;;;;;11.37;9.10;;;9.00;99.90;;;;;;5077180;28;20461;-66
2022/02/17 08:54:54;;;;;;;11.60;8.97;;;9.00;99.90;;;;;;5082385;28;20440;-66
2022/02/17 08:57:27;;;;;;;10.13;8.40;;;8.90;99.90;;;;;;5079113;28;20455;-66
2022/02/17 08:59:58;;;;;;;11.40;9.40;;;8.90;99.90;;;;;;5082725;28;20800;-66
2022/02/17 09:02:32;;;;;;;16.98;8.90;;;8.80;99.90;;;;;;5081874;28;20541;-66
2022/02/17 09:05:03;;;;;;;11.60;9.50;;;8.80;99.90;;;;;;5084237;28;20216;-66
2022/02/17 09:07:34;;;;;;;8.87;7.47;;;8.70;99.90;;;;;;5084219;28;20452;-65
2022/02/17 09:10:05;;;;;;;11.50;10.30;;;8.70;99.90;;;;;;5081175;28;20460;-66
2022/02/17 09:12:41;;;;;;;10.00;9.07;;;8.70;99.90;;;;;;5084580;28;20788;-66
2022/02/17 09:15:12;;;;;;;10.70;9.60;;;8.70;99.90;;;;;;5082402;28;20515;-66
2022/02/17 09:17:45;;;;;;;10.48;8.70;;;8.70;99.90;;;;;;5081325;28;20204;-66
2022/02/17 09:20:16;;;;;;;9.53;8.67;;;8.60;99.90;;;;;;5080514;28;20205;-66
2022/02/17 09:22:47;;;;;;;11.47;9.40;;;8.60;99.90;;;;;;5081197;28;20486;-66
2022/02/17 09:25:20;;;;;;;9.57;8.40;;;8.60;99.90;;;;;;5082729;28;20432;-66
2022/02/17 09:27:52;;;;;;;9.43;8.20;;;8.50;99.90;;;;;;5081173;28;20448;-66
2022/02/17 09:30:32;;;;;;;9.20;8.30;;;8.50;99.90;;;;;;5085528;28;20440;-66
2022/02/17 09:33:03;;;;;;;9.68;8.80;;;8.50;99.90;;;;;;5081574;28;20215;-66
2022/02/17 09:35:34;;;;;;;11.10;9.85;;;8.40;99.90;;;;;;5082366;28;20201;-66
2022/02/17 09:38:05;;;;;;;12.93;8.77;;;8.40;99.90;;;;;;5079710;28;20201;-66
2022/02/17 09:40:39;;;;;;;11.18;8.20;;;8.30;99.90;;;;;;5079026;28;20240;-66
2022/02/17 09:43:12;;;;;;;12.88;8.52;;;8.20;99.90;;;;;;5082020;28;20217;-66
2022/02/17 09:45:46;;;;;;;8.52;7.60;;;8.20;99.90;;;;;;5080148;28;20216;-66
2022/02/17 09:48:19;;;;;;;9.60;8.70;;;8.20;99.90;;;;;;5081177;28;20215;-66
2022/02/17 09:50:53;;;;;;;10.07;7.88;;;8.00;99.90;;;;;;5084299;28;20288;-66
2022/02/17 09:53:23;;;;;;;9.50;8.52;;;8.00;99.90;;;;;;5082128;28;20237;-66
2022/02/17 09:55:55;;;;;;;11.10;8.43;;;7.90;99.90;;;;;;5085554;28;20200;-66
2022/02/17 09:58:27;;;;;;;9.57;8.32;;;7.90;99.90;;;;;;5085698;28;20197;-66
2022/02/17 10:00:59;;;;;;;9.68;8.48;;;7.80;99.90;;;;;;5081888;28;20231;-66
2022/02/17 10:03:36;;;;;;;10.15;7.85;;;7.70;99.90;;;;;;5085207;28;20251;-66
2022/02/17 10:06:27;;;;;;;8.10;7.40;;;7.70;99.90;;;;;;5085467;28;20209;-66
2022/02/17 10:09:08;;;;;;;10.63;8.35;;;7.60;99.90;;;;;;5085181;28;20212;-66
2022/02/17 10:11:40;;;;;;;10.55;8.88;;;7.50;99.90;;;;;;5089344;28;20305;-66
2022/02/17 10:14:15;;;;;;;10.07;8.75;;;7.60;99.90;;;;;;5085234;28;20196;-66
2022/02/17 10:16:54;;;;;;;10.73;8.40;;;7.60;99.90;;;;;;5080650;28;20192;-66
2022/02/17 10:19:27;;;;;;;9.07;7.82;;;7.60;99.90;;;;;;5084863;28;20466;-65
2022/02/17 10:22:07;;;;;;;10.93;8.55;;;7.70;99.90;;;;;;5084217;28;20615;-65
2022/02/17 10:24:44;;;;;;;10.23;8.20;;;7.80;99.90;;;;;;5092847;28;20203;-65
2022/02/17 10:27:16;;;;;;;9.82;7.45;;;7.80;99.90;;;;;;5091823;28;20205;-66
2022/02/17 10:30:07;;;;;;;8.88;7.18;;;7.80;99.90;;;;;;5083633;28;20212;-65
2022/02/17 10:32:38;;;;;;;8.65;7.60;;;7.80;99.90;;;;;;5084971;28;20195;-65
2022/02/17 10:35:13;;;;;;;12.13;7.90;;;7.80;99.90;;;;;;5086200;28;20652;-65
2022/02/17 10:37:46;;;;;;;8.60;7.78;;;7.90;99.90;;;;;;5083848;28;20209;-65
2022/02/17 10:40:19;;;;;;;8.93;7.50;;;7.80;99.90;;;;;;5074793;28;20221;-65
2022/02/17 10:43:05;;;;;;;10.10;7.13;;;7.80;99.90;;;;;;5088516;28;20294;-65
2022/02/17 10:45:46;;;;;;;7.63;6.80;;;7.80;99.90;;;;;;5083809;28;20272;-65
2022/02/17 10:48:18;;;;;;;8.15;7.18;;;7.80;99.90;;;;;;5087552;28;20589;-65
2022/02/17 10:51:03;;;;;;;9.13;7.55;;;7.80;99.90;;;;;;5098322;28;20199;-65
2022/02/17 10:53:37;;;;;;;8.70;7.85;;;7.80;99.90;;;;;;5084646;28;20205;-65
2022/02/17 10:56:12;;;;;;;8.73;7.65;;;7.80;99.90;;;;;;5084854;28;20351;-65
2022/02/17 10:58:46;;;;;;;8.18;7.38;;;7.70;99.90;;;;;;5083469;28;20209;-65
2022/02/17 11:01:24;;;;;;;8.10;6.97;;;7.70;99.90;;;;;;5083594;28;20227;-65
2022/02/17 11:03:55;;;;;;;8.30;7.60;;;7.60;99.90;;;;;;5084116;28;20236;-65
2022/02/17 11:06:26;;;;;;;9.10;7.72;;;7.50;99.90;;;;;;5088357;28;20243;-65
2022/02/17 11:08:57;;;;;;;8.05;7.10;;;7.50;99.90;;;;;;5078496;28;20282;-65
2022/02/17 11:11:28;;;;;;;7.30;6.53;;;7.60;99.90;;;;;;5084467;28;20186;-65
2022/02/17 11:13:59;;;;;;;8.30;7.20;;;7.60;99.90;;;;;;5091642;28;20694;-65
2022/02/17 11:16:32;;;;;;;10.45;6.70;;;7.60;99.90;;;;;;5094495;28;20288;-65
2022/02/17 11:19:04;;;;;;;7.57;6.88;;;7.60;99.90;;;;;;5083190;28;20209;-65
2022/02/17 11:21:35;;;;;;;9.48;7.70;;;7.50;99.90;;;;;;5083592;28;20201;-65
2022/02/17 11:24:10;;;;;;;7.50;6.60;;;7.60;99.90;;;;;;5084724;28;20535;-65
2022/02/17 11:26:42;;;;;;;7.90;7.20;;;7.70;99.90;;;;;;5083952;28;20228;-65
2022/02/17 11:29:29;;;;;;;7.28;6.45;;;7.70;99.90;;;;;;5083864;28;20201;-65
2022/02/17 11:32:03;;;;;;;8.27;7.25;;;7.70;99.90;;;;;;5083376;28;20208;-65
2022/02/17 11:34:39;;;;;;;10.15;7.70;;;7.70;99.90;;;;;;5084991;28;20211;-65
2022/02/17 11:38:12;;;;;;;8.80;7.90;;;7.80;99.90;;;;;;5083454;28;20196;-65
2022/02/17 11:41:06;;;;;;;9.07;7.35;;;7.80;99.90;;;;;;5021920;28;20230;-65
2022/02/17 11:43:39;;;;;;;7.30;6.60;;;7.80;99.90;;;;;;5006043;28;20240;-65
2022/02/17 11:46:10;;;;;;;7.93;7.05;;;7.90;99.90;;;;;;5019440;28;20203;-65
2022/02/17 11:48:45;;;;;;;8.20;6.90;;;7.80;99.90;;;;;;5031978;28;20205;-67
2022/02/17 11:51:18;;;;;;;9.25;8.02;;;7.80;99.90;;;;;;5027226;28;20197;-66
2022/02/17 11:53:51;;;;;;;7.78;6.97;;;7.80;99.90;;;;;;5025532;28;20207;-66
2022/02/17 11:56:44;;;;;;;7.65;6.90;;;7.90;99.90;;;;;;5021036;28;20697;-66
2022/02/17 11:59:29;;;;;;;8.60;7.72;;;7.90;99.90;;;;;;5019905;28;20298;-67
2022/02/17 12:02:01;;;;;;;7.65;6.95;;;7.90;99.90;;;;;;5020311;28;20205;-66
2022/02/17 12:05:17;;;;;;;7.82;7.03;;;7.90;99.90;;;;;;5021101;28;20286;-65
2022/02/17 12:07:49;;;;;;;9.60;6.90;;;8.00;99.90;;;;;;5020657;28;20210;-66
2022/02/17 12:10:33;;;;;;;8.40;7.00;;;8.00;99.90;;;;;;5019290;28;20306;-66
2022/02/17 12:13:09;;;;;;;8.07;7.28;;;8.00;99.90;;;;;;5018394;28;20207;-66
2022/02/17 12:15:45;;;;;;;9.05;7.30;;;8.00;99.90;;;;;;5051767;28;20208;-66
2022/02/17 12:18:16;;;;;;;14.93;8.13;;;8.00;99.90;;;;;;5089479;28;20200;-66
2022/02/17 12:20:49;;;;;;;9.20;7.73;;;8.10;99.90;;;;;;5081812;28;20218;-66
2022/02/17 12:23:20;;;;;;;12.02;7.25;;;8.10;99.90;;;;;;5081698;28;20604;-66
2022/02/17 12:25:52;;;;;;;9.60;7.50;;;8.10;99.90;;;;;;5083032;28;20215;-66
2022/02/17 12:28:23;;;;;;;10.48;7.45;;;8.10;99.90;;;;;;5082397;28;20579;-66
2022/02/17 12:30:54;;;;;;;9.10;7.90;;;8.00;99.90;;;;;;5085044;28;20382;-66
2022/02/17 12:33:27;;;;;;;13.70;8.00;;;8.00;99.90;;;;;;5085818;28;20220;-66
2022/02/17 12:36:09;;;;;;;8.85;7.97;;;8.00;99.90;;;;;;5083621;28;20454;-66
2022/02/17 12:38:40;;;;;;;8.23;7.43;;;7.90;99.90;;;;;;5086116;28;20205;-66
2022/02/17 12:41:13;;;;;;;8.32;6.78;;;7.90;99.90;;;;;;5080765;28;20239;-66
2022/02/17 12:43:45;;;;;;;8.55;7.65;;;7.80;99.90;;;;;;5086368;28;20221;-66
2022/02/17 12:46:19;;;;;;;10.70;7.10;;;7.70;99.90;;;;;;5080285;28;20258;-66
2022/02/17 12:48:50;;;;;;;10.02;8.32;;;7.70;99.90;;;;;;5082492;28;20208;-66
2022/02/17 12:51:37;;;;;;;8.98;7.75;;;7.70;99.90;;;;;;5081218;28;20349;-66
2022/02/17 12:54:12;;;;;;;9.60;7.60;;;7.80;99.90;;;;;;5075516;28;20219;-66
2022/02/17 12:57:06;;;;;;;9.55;8.35;;;7.80;99.90;;;;;;5082885;28;20201;-66
2022/02/17 12:59:37;;;;;;;11.15;8.32;;;7.80;99.90;;;;;;5081747;28;20201;-66
2022/02/17 13:02:09;;;;;;;8.68;7.50;;;7.80;99.90;;;;;;5081316;28;20208;-66
2022/02/17 13:04:46;;;;;;;8.55;7.03;;;7.80;99.90;;;;;;5084523;28;20224;-64
2022/02/17 13:07:23;;;;;;;10.27;7.85;;;7.90;99.90;;;;;;5082052;28;20247;-66
2022/02/17 13:09:59;;;;;;;7.18;6.47;;;7.80;99.90;;;;;;5092959;28;20530;-67
2022/02/17 13:12:30;;;;;;;9.00;7.35;;;7.80;99.90;;;;;;5093950;28;20260;-68
2022/02/17 13:15:02;;;;;;;10.73;7.53;;;7.90;99.90;;;;;;5081956;28;20204;-68
2022/02/17 13:17:36;;;;;;;9.63;7.45;;;7.90;99.90;;;;;;5082027;28;20260;-65
2022/02/17 13:20:25;;;;;;;9.80;7.30;;;8.00;99.90;;;;;;5074674;28;20201;-66
2022/02/17 13:22:58;;;;;;;11.20;8.10;;;8.00;99.90;;;;;;5081528;28;20444;-65